Terminal Aerodrome Forecast
Issued by NWS Melbourne, FL

Home | Current Version | Previous Version | Text Only | Print | Product List | Glossary On
Versions: 1 2 3 4 5 6 7 8 9 10 11 12
000
FTUS42 KMLB 272300 RRA
TAFDAB
TAF
KDAB 272346Z 2800/2824 04005KT P6SM FEW025 SCT250
     FM280300 06003KT 5SM BR BKN012 OVC020
      TEMPO 2803/2806 4SM BR OVC010
     FM280600 00000KT 3SM BR OVC008
      TEMPO 2809/2812 1SM BR OVC005
     FM281300 16004KT 6SM HZ BKN008 BKN020=

USA.gov is the U.S. government's official web portal to all federal, state and local government web resources and services.